Terminal Aerodrome Forecast
Issued by NWS Albany, NY

Home | Current Version | Previous Version | Text Only | Print | Product List | Glossary On
Versions: 1 2 3 4 5 6 7 8 9 10 11 12 13 14 15 16 17 18 19 20
000
FTUS41 KALY 020500
TAFALB
TAF
KALB 020540Z 0206/0306 VRB03KT P6SM VCSH SCT006 OVC035
      TEMPO 0206/0210 BKN006 OVC035
     FM021000 VRB03KT 3SM BR SCT006 SCT025 OVC035
      TEMPO 0210/0212 BKN006 BKN025 OVC035
     FM021400 01005KT P6SM OVC025
     FM021800 03004KT P6SM SCT025 OVC050
     FM022100 VRB03KT P6SM BKN050=

USA.gov is the U.S. government's official web portal to all federal, state and local government web resources and services.